Decoded Metar for WSSS (SINGAPORE in SINGAPORE) (IATA:SIN) | Meteo·Mobile Aviation Weather
aviador You're here:

WSSS Decoded Metar

SINGAPORE in SINGAPORE
Report Time2019-07-16 10:00:00
UTC Time2019-07-16 10:10:38
Flight Rules vfr VFR
Wind160° at 10 kt
W.Decomp.*RWY 20: 7.7 kt HW 6.4 kt LCW
Visibility9999 m
Phenomena:N/A
Clouds:Few TCU 020 Hf
Scattered 300 Hf
Expected CloudBase > 2,800 ft AGL from Temp-Dew spread
CeilingNone
Temp30°C (ISA +15)
Dew Point23°C (66% RH)
Heat Index34.1°C
QNH1007 hPa
Density Alt2,352 ft
Elevation52 ft
Report Wrong Elevation
Raw Report
METAR WSSS 161000Z 16010KT 140V200 9999 FEW020TCU SCT300 30/23 Q1007
NOSIG=

Extra information for WSSS:More info

Metar Taf Metar & Taf Last 4 Metars F.Rules Stats Wind Profile Meteogram Temp Stats Airport Information Weather charts Add Link Nearby VenuesMetar ALERT Operation Metar Decoded Social comments